createdAt,value
2023-04-26T00:02:09.054Z,8.09
2023-04-26T00:04:47.896Z,8.10
2023-04-26T00:07:31.323Z,8.08
2023-04-26T00:10:10.896Z,8.05
2023-04-26T00:12:47.762Z,8.02
2023-04-26T00:15:25.177Z,8.00
2023-04-26T00:18:02.720Z,8.02
2023-04-26T00:20:39.930Z,8.01
2023-04-26T00:23:17.753Z,7.96
2023-04-26T00:25:55.168Z,7.93
2023-04-26T00:28:32.994Z,7.84
2023-04-26T00:31:15.932Z,7.75
2023-04-26T00:33:53.608Z,7.73
2023-04-26T00:36:30.705Z,7.61
2023-04-26T00:39:09.522Z,7.53
2023-04-26T00:41:47.267Z,7.46
2023-04-26T00:44:24.361Z,7.37
2023-04-26T00:46:57.277Z,7.31
2023-04-26T00:49:33.074Z,7.15
2023-04-26T00:52:07.516Z,7.08
2023-04-26T00:54:45.131Z,7.03
2023-04-26T00:57:22.641Z,6.95
2023-04-26T00:59:59.698Z,6.90
2023-04-26T01:02:38.285Z,6.93
2023-04-26T01:05:15.546Z,6.99
2023-04-26T01:07:53.057Z,7.01
2023-04-26T01:10:30.191Z,6.92
2023-04-26T01:13:08.498Z,6.77
2023-04-26T01:15:53.018Z,6.70
2023-04-26T01:18:30.738Z,6.71
2023-04-26T01:21:08.897Z,6.71
2023-04-26T01:23:41.174Z,6.72
2023-04-26T01:26:14.761Z,6.70
2023-04-26T01:28:52.484Z,6.76
2023-04-26T01:31:30.240Z,6.79
2023-04-26T01:34:08.684Z,6.89
2023-04-26T01:36:46.185Z,6.96
2023-04-26T01:39:23.936Z,7.06
2023-04-26T01:42:01.202Z,7.12
2023-04-26T01:44:39.687Z,7.11
2023-04-26T01:47:17.112Z,7.06
2023-04-26T01:49:54.366Z,7.07
2023-04-26T01:52:31.858Z,7.13
2023-04-26T01:55:09.723Z,7.20
2023-04-26T01:57:47.233Z,7.22
2023-04-26T02:00:24.922Z,7.13
2023-04-26T02:02:59.015Z,7.15
2023-04-26T02:05:33.157Z,7.16
2023-04-26T02:08:11.899Z,7.17
2023-04-26T02:10:49.801Z,7.17
2023-04-26T02:13:27.565Z,7.10
2023-04-26T02:16:05.579Z,7.07
2023-04-26T02:18:43.142Z,7.01
2023-04-26T02:21:21.049Z,6.90
2023-04-26T02:23:56.911Z,6.82
2023-04-26T02:26:34.704Z,6.81
2023-04-26T02:29:11.928Z,6.89
2023-04-26T02:31:49.051Z,6.98
2023-04-26T02:34:26.298Z,7.05
2023-04-26T02:36:58.481Z,7.11
2023-04-26T02:39:34.261Z,7.14
2023-04-26T02:42:14.016Z,7.19
2023-04-26T02:44:51.443Z,7.22
2023-04-26T02:47:28.787Z,7.21
2023-04-26T02:50:06.171Z,7.23
2023-04-26T02:52:43.243Z,7.19
2023-04-26T02:55:21.400Z,7.20
2023-04-26T02:57:58.020Z,7.14
2023-04-26T03:00:35.215Z,7.13
2023-04-26T03:03:13.188Z,7.17
2023-04-26T03:05:50.508Z,7.22
2023-04-26T03:08:21.838Z,7.32
2023-04-26T03:10:55.486Z,7.36
2023-04-26T03:13:33.294Z,7.43
2023-04-26T03:16:12.051Z,7.40
2023-04-26T03:18:48.888Z,7.26
2023-04-26T03:21:26.068Z,7.27
2023-04-26T03:24:03.635Z,7.24
2023-04-26T03:26:40.821Z,7.27
2023-04-26T03:29:19.151Z,7.27
2023-04-26T03:31:56.537Z,7.31
2023-04-26T03:34:34.016Z,7.35
2023-04-26T03:37:11.547Z,7.29
2023-04-26T03:39:49.553Z,7.26
2023-04-26T03:42:26.919Z,7.26
2023-04-26T03:44:57.463Z,7.24
2023-04-26T03:47:35.810Z,7.23
2023-04-26T03:50:15.244Z,7.12
2023-04-26T03:52:52.257Z,7.11
2023-04-26T03:55:29.214Z,7.04
2023-04-26T03:58:08.366Z,6.94
2023-04-26T04:00:45.751Z,6.89
2023-04-26T04:03:22.748Z,6.80
2023-04-26T04:06:00.176Z,6.77
2023-04-26T04:08:37.762Z,6.72
2023-04-26T04:11:16.332Z,6.66
2023-04-26T04:13:55.825Z,6.61
2023-04-26T04:16:33.382Z,6.64
2023-04-26T04:19:12.109Z,6.67
2023-04-26T04:21:50.139Z,6.64
2023-04-26T04:24:21.327Z,6.61
2023-04-26T04:26:57.438Z,6.59
2023-04-26T04:29:35.169Z,6.58
2023-04-26T04:32:15.423Z,6.60
2023-04-26T04:34:54.706Z,6.67
2023-04-26T04:37:36.421Z,6.69
2023-04-26T04:40:16.194Z,6.73
2023-04-26T04:42:54.999Z,6.76
2023-04-26T04:45:32.791Z,6.72
2023-04-26T04:48:12.048Z,6.72
2023-04-26T04:50:50.944Z,6.77
2023-04-26T04:53:29.221Z,6.76
2023-04-26T04:56:07.977Z,6.82
2023-04-26T04:58:45.967Z,6.87
2023-04-26T05:01:24.448Z,6.82
2023-04-26T05:04:02.940Z,6.86
2023-04-26T05:06:41.410Z,6.86
2023-04-26T05:09:19.311Z,7.00
2023-04-26T05:11:57.215Z,7.09
2023-04-26T05:14:35.760Z,7.20
2023-04-26T05:17:14.091Z,7.25
2023-04-26T05:19:52.920Z,7.42
2023-04-26T05:22:32.062Z,7.53
2023-04-26T05:25:03.604Z,7.71
2023-04-26T05:27:39.181Z,7.92
2023-04-26T05:30:17.607Z,8.28
2023-04-26T05:32:57.372Z,8.56
2023-04-26T05:35:36.531Z,8.87
2023-04-26T05:38:15.364Z,8.81
2023-04-26T05:40:54.242Z,8.80
2023-04-26T05:43:32.676Z,9.16
2023-04-26T05:46:12.557Z,9.04
2023-04-26T05:48:51.037Z,8.69
2023-04-26T05:51:29.338Z,8.90
2023-04-26T05:54:00.314Z,9.10
2023-04-26T05:56:39.377Z,9.26
2023-04-26T05:59:17.465Z,9.49
2023-04-26T06:01:54.628Z,9.80
2023-04-26T06:04:26.981Z,9.87
2023-04-26T06:07:00.896Z,10.05
2023-04-26T06:09:40.226Z,10.15
2023-04-26T06:12:18.386Z,10.16
2023-04-26T06:14:54.576Z,10.53
2023-04-26T06:17:34.186Z,10.28
2023-04-26T06:20:13.606Z,10.10
2023-04-26T06:22:52.154Z,10.66
2023-04-26T06:25:30.899Z,11.08
2023-04-26T06:28:01.672Z,12.11
2023-04-26T06:30:40.779Z,12.45
2023-04-26T06:33:19.290Z,12.59
2023-04-26T06:35:54.350Z,12.90
2023-04-26T06:38:33.357Z,12.44
2023-04-26T06:41:04.282Z,12.52
2023-04-26T06:43:41.116Z,12.70
2023-04-26T06:46:19.691Z,12.93
2023-04-26T06:48:55.823Z,12.95
2023-04-26T06:51:33.869Z,12.81
2023-04-26T06:54:05.526Z,13.40
2023-04-26T06:56:43.228Z,13.85
2023-04-26T06:59:22.087Z,14.35
2023-04-26T07:01:57.166Z,14.29
2023-04-26T07:04:28.566Z,14.45
2023-04-26T07:07:02.387Z,14.86
2023-04-26T07:09:41.403Z,14.98
2023-04-26T07:12:21.019Z,15.48
2023-04-26T07:14:55.412Z,15.02
2023-04-26T07:17:35.294Z,14.86
2023-04-26T07:20:16.310Z,14.12
2023-04-26T07:22:53.704Z,14.10
2023-04-26T07:25:32.926Z,14.44
2023-04-26T07:28:13.148Z,15.02
2023-04-26T07:30:52.648Z,15.21
2023-04-26T07:33:31.919Z,15.30
2023-04-26T07:36:12.408Z,14.83
2023-04-26T07:38:51.987Z,14.82
2023-04-26T07:41:31.776Z,15.27
2023-04-26T07:44:09.385Z,14.94
2023-04-26T07:46:49.075Z,14.68
2023-04-26T07:49:28.681Z,14.36
2023-04-26T07:52:05.966Z,14.04
2023-04-26T07:54:47.430Z,13.83
2023-04-26T07:57:26.960Z,13.41
2023-04-26T07:59:58.969Z,12.58
2023-04-26T08:05:17.954Z,13.09
2023-04-26T08:07:57.372Z,13.57
2023-04-26T08:10:36.891Z,14.24
2023-04-26T08:13:18.323Z,14.46
2023-04-26T08:15:56.890Z,14.89
2023-04-26T08:18:35.999Z,14.43
2023-04-26T08:21:10.949Z,13.67
2023-04-26T08:23:45.186Z,13.11
2023-04-26T08:26:22.460Z,12.64
2023-04-26T08:28:57.922Z,12.33
2023-04-26T08:31:36.668Z,12.32
2023-04-26T08:34:23.242Z,13.06
2023-04-26T08:36:57.971Z,13.91
2023-04-26T08:39:37.612Z,14.64
2023-04-26T08:42:25.608Z,15.16
2023-04-26T08:45:05.644Z,15.11
2023-04-26T08:47:50.163Z,14.41
2023-04-26T08:50:26.715Z,13.66
2023-04-26T08:52:59.003Z,13.21
2023-04-26T08:55:40.509Z,12.96
2023-04-26T08:58:23.452Z,12.57
2023-04-26T09:01:00.534Z,12.29
2023-04-26T09:03:40.230Z,12.07
2023-04-26T09:06:20.505Z,12.47
2023-04-26T09:08:58.366Z,13.29
2023-04-26T09:11:55.956Z,13.36
2023-04-26T09:14:28.301Z,12.96
2023-04-26T09:17:00.123Z,13.07
2023-04-26T09:19:45.681Z,13.29
2023-04-26T09:22:40.086Z,13.20
2023-04-26T09:25:28.677Z,12.88
2023-04-26T09:28:02.472Z,12.76
2023-04-26T09:30:45.030Z,12.55
2023-04-26T09:33:23.388Z,12.19
2023-04-26T09:36:14.935Z,11.87
2023-04-26T09:38:53.879Z,11.66
2023-04-26T09:41:57.942Z,11.45
2023-04-26T09:44:35.676Z,11.11
2023-04-26T09:47:13.531Z,11.00
2023-04-26T09:49:59.250Z,10.92
2023-04-26T09:52:45.574Z,10.88
2023-04-26T09:55:35.693Z,10.91
2023-04-26T09:58:19.542Z,10.93
2023-04-26T10:01:00.431Z,10.75
2023-04-26T10:03:42.639Z,10.55
2023-04-26T10:06:24.246Z,10.31
2023-04-26T10:09:00.670Z,10.32
2023-04-26T10:11:41.812Z,10.40
2023-04-26T10:14:21.314Z,10.45
2023-04-26T10:17:01.502Z,10.51
2023-04-26T10:19:47.251Z,10.45
2023-04-26T10:22:30.516Z,10.50
2023-04-26T10:25:05.050Z,10.46
2023-04-26T10:27:51.851Z,10.28
2023-04-26T10:30:29.495Z,10.18
2023-04-26T10:33:02.823Z,10.15
2023-04-26T10:36:00.644Z,10.20
2023-04-26T10:39:18.458Z,10.17
2023-04-26T10:41:50.556Z,10.44
2023-04-26T10:44:46.465Z,10.62
2023-04-26T10:47:37.878Z,10.64
2023-04-26T10:50:14.775Z,10.51
2023-04-26T10:53:04.847Z,10.37
2023-04-26T10:55:48.772Z,10.34
2023-04-26T10:58:42.888Z,10.35
2023-04-26T11:01:24.943Z,10.31
2023-04-26T11:04:02.091Z,10.44
2023-04-26T11:06:58.697Z,10.64
2023-04-26T11:09:49.808Z,10.67
2023-04-26T11:12:29.230Z,10.98
2023-04-26T11:15:04.217Z,11.17
2023-04-26T11:17:47.708Z,11.39
2023-04-26T11:20:32.029Z,11.68
2023-04-26T11:23:06.175Z,11.63
2023-04-26T11:25:48.065Z,11.51
2023-04-26T11:28:27.753Z,11.36
2023-04-26T11:31:04.792Z,11.26
2023-04-26T11:33:46.418Z,11.14
2023-04-26T11:36:27.813Z,10.90
2023-04-26T11:39:03.975Z,10.93
2023-04-26T11:41:43.355Z,10.86
2023-04-26T11:44:29.977Z,10.78
2023-04-26T11:47:06.943Z,11.00
2023-04-26T11:49:40.569Z,11.36
2023-04-26T11:52:21.186Z,11.60
2023-04-26T11:55:11.089Z,11.78
2023-04-26T11:57:50.676Z,11.97
2023-04-26T12:00:30.095Z,11.93
2023-04-26T12:03:11.725Z,11.82
2023-04-26T12:05:57.783Z,11.60
2023-04-26T12:08:35.973Z,11.38
2023-04-26T12:11:12.305Z,11.15
2023-04-26T12:13:51.394Z,10.94
2023-04-26T12:16:30.841Z,10.83
2023-04-26T12:19:12.166Z,10.72
2023-04-26T12:21:52.718Z,10.69
2023-04-26T12:24:34.198Z,10.68
2023-04-26T12:27:09.492Z,10.79
2023-04-26T12:29:48.586Z,10.91
2023-04-26T12:32:27.783Z,10.92
2023-04-26T12:35:04.599Z,10.93
2023-04-26T12:37:43.378Z,10.91
2023-04-26T12:40:22.583Z,10.72
2023-04-26T12:43:01.797Z,10.57
2023-04-26T12:45:41.608Z,10.37
2023-04-26T12:48:20.593Z,10.29
2023-04-26T12:50:59.520Z,10.22
2023-04-26T12:53:38.254Z,10.20
2023-04-26T12:56:16.782Z,10.25
2023-04-26T12:58:56.256Z,10.39
2023-04-26T13:01:34.063Z,10.52
2023-04-26T13:04:06.621Z,10.64
2023-04-26T13:06:45.535Z,10.63
2023-04-26T13:09:21.328Z,10.62
2023-04-26T13:11:53.308Z,10.50
2023-04-26T13:14:33.488Z,10.40
2023-04-26T13:17:07.011Z,10.25
2023-04-26T13:19:46.193Z,10.12
2023-04-26T13:22:25.418Z,10.06
2023-04-26T13:25:05.370Z,9.93
2023-04-26T13:27:43.973Z,9.86
2023-04-26T13:30:22.024Z,9.90
2023-04-26T13:33:00.607Z,10.05
2023-04-26T13:35:38.690Z,10.34
2023-04-26T13:38:17.491Z,10.46
2023-04-26T13:40:56.744Z,10.39
2023-04-26T13:43:35.534Z,10.40
2023-04-26T13:46:06.011Z,10.34
2023-04-26T13:48:45.867Z,10.25
2023-04-26T13:51:21.431Z,10.12
2023-04-26T13:53:56.003Z,10.07
2023-04-26T13:56:34.109Z,10.08
2023-04-26T13:59:09.191Z,10.01
2023-04-26T14:01:49.086Z,9.99
2023-04-26T14:04:24.493Z,9.98
2023-04-26T14:07:04.237Z,9.92
2023-04-26T14:09:42.603Z,9.92
2023-04-26T14:12:22.188Z,9.97
2023-04-26T14:15:04.969Z,10.10
2023-04-26T14:17:44.098Z,10.17
2023-04-26T14:20:22.931Z,10.12
2023-04-26T14:23:02.115Z,10.17
2023-04-26T14:25:40.877Z,10.11
2023-04-26T14:28:11.685Z,10.10
2023-04-26T14:30:51.410Z,10.15
2023-04-26T14:33:30.164Z,10.14
2023-04-26T14:36:06.096Z,10.16
2023-04-26T14:38:38.173Z,10.17
2023-04-26T14:41:15.989Z,10.11
2023-04-26T14:43:56.910Z,9.81
2023-04-26T14:46:35.364Z,9.79
2023-04-26T14:49:12.094Z,9.75
2023-04-26T14:51:53.105Z,9.71
2023-04-26T14:54:38.749Z,9.61
2023-04-26T14:57:13.772Z,9.61
2023-04-26T14:59:53.746Z,9.63
2023-04-26T15:02:32.199Z,9.61
2023-04-26T15:05:11.226Z,9.62
2023-04-26T15:07:49.963Z,9.63
2023-04-26T15:10:28.735Z,9.70
2023-04-26T15:13:08.139Z,9.75
2023-04-26T15:15:46.677Z,9.79
2023-04-26T15:18:24.799Z,9.82
2023-04-26T15:21:03.420Z,9.85
2023-04-26T15:23:42.077Z,9.87
2023-04-26T15:26:18.785Z,9.90
2023-04-26T15:28:56.493Z,9.90
2023-04-26T15:31:34.593Z,9.85
2023-04-26T15:34:10.298Z,9.81
2023-04-26T15:36:43.376Z,9.79
2023-04-26T15:39:19.356Z,9.79
2023-04-26T15:41:58.413Z,9.76
2023-04-26T15:44:37.227Z,9.75
2023-04-26T15:47:11.580Z,9.69
2023-04-26T15:49:50.543Z,9.55
2023-04-26T15:52:28.825Z,9.52
2023-04-26T15:55:08.251Z,9.47
2023-04-26T15:57:47.691Z,9.37
2023-04-26T16:00:22.423Z,9.37
2023-04-26T16:02:59.505Z,9.27
2023-04-26T16:05:37.544Z,9.15
2023-04-26T16:08:12.299Z,9.09
2023-04-26T16:10:50.794Z,9.10
2023-04-26T16:13:24.450Z,9.10
2023-04-26T16:16:00.288Z,9.12
2023-04-26T16:18:40.371Z,9.09
2023-04-26T16:21:14.075Z,8.99
2023-04-26T16:23:53.368Z,8.98
2023-04-26T16:26:32.000Z,8.98
2023-04-26T16:29:12.222Z,8.96
2023-04-26T16:31:50.403Z,8.91
2023-04-26T16:34:28.141Z,8.88
2023-04-26T16:37:06.269Z,8.87
2023-04-26T16:39:44.448Z,8.89
2023-04-26T16:42:18.562Z,8.93
2023-04-26T16:44:58.595Z,8.92
2023-04-26T16:47:36.778Z,8.87
2023-04-26T16:50:11.759Z,8.84
2023-04-26T16:52:45.676Z,8.88
2023-04-26T16:55:20.086Z,8.90
2023-04-26T16:57:58.023Z,8.91
2023-04-26T17:00:35.541Z,8.93
2023-04-26T17:03:07.828Z,8.98
2023-04-26T17:05:50.206Z,9.02
2023-04-26T17:08:29.031Z,8.96
2023-04-26T17:11:08.452Z,8.96
2023-04-26T17:13:47.864Z,8.93
2023-04-26T17:16:21.170Z,8.90
2023-04-26T17:18:58.905Z,8.87
2023-04-26T17:21:37.666Z,8.88
2023-04-26T17:24:12.224Z,8.89
2023-04-26T17:26:43.134Z,8.87
2023-04-26T17:29:14.760Z,8.86
2023-04-26T17:31:53.032Z,8.85
2023-04-26T17:34:32.910Z,8.87
2023-04-26T17:37:12.963Z,8.87
2023-04-26T17:39:51.991Z,8.87
2023-04-26T17:42:30.022Z,8.85
2023-04-26T17:45:10.394Z,8.82
2023-04-26T17:47:48.352Z,8.81
2023-04-26T17:50:26.182Z,8.76
2023-04-26T17:53:06.172Z,8.74
2023-04-26T17:55:45.328Z,8.74
2023-04-26T17:58:19.590Z,8.70
2023-04-26T18:00:57.984Z,8.70
2023-04-26T18:03:36.766Z,8.68
2023-04-26T18:06:13.619Z,8.70
2023-04-26T18:08:45.383Z,8.72
2023-04-26T18:11:20.910Z,8.74
2023-04-26T18:14:01.620Z,8.74
2023-04-26T18:16:39.780Z,8.74
2023-04-26T18:19:14.190Z,8.75
2023-04-26T18:21:53.909Z,8.75
2023-04-26T18:24:32.370Z,8.75
2023-04-26T18:27:13.639Z,8.74
2023-04-26T18:29:52.817Z,8.71
2023-04-26T18:32:23.559Z,8.67
2023-04-26T18:34:54.906Z,8.63
2023-04-26T18:37:33.826Z,8.61
2023-04-26T18:40:06.408Z,8.58
2023-04-26T18:42:46.352Z,8.55
2023-04-26T18:45:23.263Z,8.52
2023-04-26T18:48:02.490Z,8.50
2023-04-26T18:50:41.853Z,8.50
2023-04-26T18:53:20.459Z,8.50
2023-04-26T18:56:01.847Z,8.48
2023-04-26T18:58:40.211Z,8.46
2023-04-26T19:01:19.411Z,8.45
2023-04-26T19:03:59.231Z,8.44
2023-04-26T19:06:38.122Z,8.44
2023-04-26T19:09:17.657Z,8.42
2023-04-26T19:11:55.771Z,8.40
2023-04-26T19:14:34.053Z,8.35
2023-04-26T19:17:14.198Z,8.29
2023-04-26T19:19:53.593Z,8.25
2023-04-26T19:22:33.444Z,8.20
2023-04-26T19:25:14.171Z,8.17
2023-04-26T19:27:52.656Z,8.09
2023-04-26T19:30:31.152Z,8.02
2023-04-26T19:33:10.435Z,7.97
2023-04-26T19:35:49.805Z,7.93
2023-04-26T19:38:28.998Z,7.90
2023-04-26T19:41:08.163Z,7.88
2023-04-26T19:43:47.838Z,7.85
2023-04-26T19:46:27.526Z,7.83
2023-04-26T19:49:01.949Z,7.78
2023-04-26T19:51:41.555Z,7.74
2023-04-26T19:54:21.301Z,7.71
2023-04-26T19:57:02.025Z,7.66
2023-04-26T19:59:39.796Z,7.63
2023-04-26T20:02:20.715Z,7.53
2023-04-26T20:05:00.726Z,7.56
2023-04-26T20:07:36.982Z,7.54
2023-04-26T20:10:08.852Z,7.52
2023-04-26T20:12:46.802Z,7.51
2023-04-26T20:15:25.924Z,7.46
2023-04-26T20:18:04.679Z,7.42
2023-04-26T20:20:42.902Z,7.39
2023-04-26T20:23:21.368Z,7.35
2023-04-26T20:25:59.771Z,7.30
2023-04-26T20:28:40.025Z,7.26
2023-04-26T20:31:20.526Z,7.20
2023-04-26T20:34:00.640Z,7.17
2023-04-26T20:36:40.553Z,7.13
2023-04-26T20:39:22.138Z,7.09
2023-04-26T20:42:01.710Z,7.05
2023-04-26T20:44:40.294Z,7.00
2023-04-26T20:47:19.874Z,6.97
2023-04-26T20:49:58.614Z,6.94
2023-04-26T20:52:37.060Z,6.90
2023-04-26T20:55:10.347Z,6.86
2023-04-26T20:57:49.619Z,6.84
2023-04-26T21:00:28.593Z,6.82
2023-04-26T21:03:07.428Z,6.79
2023-04-26T21:05:46.551Z,6.76
2023-04-26T21:08:25.592Z,6.72
2023-04-26T21:11:06.592Z,6.69
2023-04-26T21:13:51.405Z,6.66
2023-04-26T21:16:29.837Z,6.63
2023-04-26T21:19:09.044Z,6.59
2023-04-26T21:21:47.770Z,6.56
2023-04-26T21:24:28.422Z,6.53
2023-04-26T21:27:07.574Z,6.51
2023-04-26T21:29:46.596Z,6.49
2023-04-26T21:32:25.318Z,6.45
2023-04-26T21:35:04.020Z,6.42
2023-04-26T21:37:43.451Z,6.40
2023-04-26T21:40:22.900Z,6.38
2023-04-26T21:43:05.323Z,6.34
2023-04-26T21:45:46.105Z,6.32
2023-04-26T21:48:25.210Z,6.28
2023-04-26T21:51:04.316Z,6.26
2023-04-26T21:53:43.393Z,6.23
2023-04-26T21:56:20.331Z,6.22
2023-04-26T21:58:50.729Z,6.19
2023-04-26T22:01:29.896Z,6.17
2023-04-26T22:04:09.673Z,6.13
2023-04-26T22:06:49.071Z,6.09
2023-04-26T22:09:28.060Z,6.05
2023-04-26T22:12:06.781Z,6.02
2023-04-26T22:14:45.255Z,6.00
2023-04-26T22:17:25.497Z,5.95
2023-04-26T22:20:05.295Z,5.93
2023-04-26T22:22:44.519Z,5.89
2023-04-26T22:25:24.654Z,5.86
2023-04-26T22:28:03.949Z,5.85
2023-04-26T22:30:54.601Z,5.83
2023-04-26T22:33:29.694Z,5.79
2023-04-26T22:36:09.413Z,5.76
2023-04-26T22:38:47.635Z,5.73
2023-04-26T22:41:26.008Z,5.70
2023-04-26T22:44:04.639Z,5.69
2023-04-26T22:46:43.376Z,5.66
2023-04-26T22:49:21.727Z,5.62
2023-04-26T22:52:09.432Z,5.59
2023-04-26T22:54:51.450Z,5.55
2023-04-26T22:57:28.138Z,5.51
2023-04-26T23:00:12.411Z,5.45
2023-04-26T23:02:51.322Z,5.42
2023-04-26T23:05:30.015Z,5.38
2023-04-26T23:08:09.493Z,5.35
2023-04-26T23:10:47.895Z,5.32
2023-04-26T23:13:22.139Z,5.30
2023-04-26T23:16:01.679Z,5.25
2023-04-26T23:18:39.567Z,5.21
2023-04-26T23:21:18.547Z,5.17
2023-04-26T23:23:56.755Z,5.15
2023-04-26T23:26:34.855Z,5.11
2023-04-26T23:29:15.207Z,5.06
2023-04-26T23:31:55.237Z,5.02
2023-04-26T23:34:33.739Z,5.00
2023-04-26T23:37:13.552Z,4.96
2023-04-26T23:39:52.384Z,4.93
2023-04-26T23:42:31.258Z,4.90
2023-04-26T23:45:10.541Z,4.88
2023-04-26T23:47:47.103Z,4.86
2023-04-26T23:50:25.836Z,4.83
2023-04-26T23:52:58.717Z,4.81
2023-04-26T23:55:33.202Z,4.79
2023-04-26T23:58:12.114Z,4.77
